Strona główna
METAR-TAF:

METAR-TAF

Lotnisko :

Port lotniczy Santa Maria

Santa Maria, Azory, Portugalia

Szerokość geograficzna: 36-58N, Długość geograficzna: 025-10W, wysokość: 100 m

Aktualna obserwacja pogody

Raport powstał 28 minut temu, godzina 22:30 UTC
Cisza
Temperatura 16°C
Wilgotność 72%
Ciśnienie 1029 hPa
Widzialność 10 km lub więcej
Przerywane chmury na wysokości 3000 ft

METAR: LPAZ 272230Z 00000KT 9999 BKN030 16/11 Q1029

czas: 22:58 (22:58 UTC)

Prognoza

Raport powstał 5 godziny i 58 minut temu, godzina 17:00 UTC
Prognoza ważna od 27 godzina 18 UTC do 28 godzina 24 UTC
Wiatr 5 kt z kierunków zmiennych
Widzialność 10 km lub więcej
Mało chmury na wysokości 2500 ft
Przerywane chmury na wysokości 3500 ft
Przejściowo
od 27 godzina 18 UTC do 28 godzina 24 UTC
Rozproszone chmury na wysokości 2200 ft
Stopniowe zmiany
od 28 godzina 14 UTC do 28 godzina 16 UTC
Wiatr 8 kt od południe

TAF: LPAZ 271700Z 2718/2824 VRB05KT 9999 FEW025 BKN035 TEMPO 2718/2824 SCT022 BECMG 2814/2816 18008KT

Obserwacja i prognoza pogody dla ponad 4000 lotnisk (raport METAR i TAF).

Dostępne stacje oznaczono żółtymi i czerwonymi punktami na mapie.

Najedź kursorem aby zobaczyć nazwę stacji.

Kliknij aby zobaczyć obserwacje i prognozy pogody.

Aby zmienić mapę: kliknij na zielony przycisk z czarnym krzyżykiem, aby powiększyć; na zielony przycisk z myślnikiem, aby pomniejszyć; na zielone strzałki, aby przejść do map sąsiednich.


METAR-TAF: